createdAt,value
2022-12-04T00:01:30.082Z,99543.30
2022-12-04T00:04:00.258Z,99549.39
2022-12-04T00:06:29.180Z,99546.09
2022-12-04T00:08:57.228Z,99547.34
2022-12-04T00:11:28.988Z,99545.30
2022-12-04T00:14:03.003Z,99540.98
2022-12-04T00:16:34.727Z,99543.77
2022-12-04T00:19:02.700Z,99548.88
2022-12-04T00:21:30.789Z,99545.79
2022-12-04T00:23:58.648Z,99545.92
2022-12-04T00:26:28.551Z,99546.27
2022-12-04T00:28:57.006Z,99546.61
2022-12-04T00:31:27.419Z,99544.42
2022-12-04T00:33:55.983Z,99546.98
2022-12-04T00:36:25.848Z,99549.38
2022-12-04T00:38:54.534Z,99548.81
2022-12-04T00:41:25.415Z,99546.68
2022-12-04T00:43:53.338Z,99547.92
2022-12-04T00:46:22.352Z,99544.98
2022-12-04T00:48:50.957Z,99543.70
2022-12-04T00:51:24.257Z,99544.75
2022-12-04T00:53:53.162Z,99539.69
2022-12-04T00:56:25.248Z,99536.04
2022-12-04T00:58:58.782Z,99536.20
2022-12-04T01:01:28.390Z,99533.61
2022-12-04T01:03:56.982Z,99525.42
2022-12-04T01:06:27.698Z,99529.92
2022-12-04T01:08:57.624Z,99535.35
2022-12-04T01:11:27.342Z,99536.26
2022-12-04T01:13:56.166Z,99533.50
2022-12-04T01:16:31.217Z,99529.86
2022-12-04T01:18:59.989Z,99531.95
2022-12-04T01:21:28.473Z,99531.42
2022-12-04T01:23:58.161Z,99527.63
2022-12-04T01:26:27.265Z,99527.31
2022-12-04T01:28:55.191Z,99524.26
2022-12-04T01:31:24.012Z,99521.39
2022-12-04T01:33:52.617Z,99524.00
2022-12-04T01:36:23.668Z,99520.69
2022-12-04T01:38:51.879Z,99512.91
2022-12-04T01:41:24.423Z,99513.98
2022-12-04T01:44:13.753Z,99519.36
2022-12-04T01:46:43.900Z,99518.50
2022-12-04T01:49:19.729Z,99519.16
2022-12-04T01:51:54.765Z,99513.04
2022-12-04T01:54:28.756Z,99506.55
2022-12-04T01:57:24.498Z,99502.69
2022-12-04T01:59:57.916Z,99500.84
2022-12-04T02:02:35.123Z,99489.90
2022-12-04T02:05:05.918Z,99490.83
2022-12-04T02:07:34.551Z,99494.81
2022-12-04T02:10:08.657Z,99493.01
2022-12-04T02:12:47.403Z,99494.81
2022-12-04T02:15:30.957Z,99491.95
2022-12-04T02:18:01.485Z,99492.82
2022-12-04T02:20:37.275Z,99491.05
2022-12-04T02:23:20.681Z,99489.11
2022-12-04T02:26:16.566Z,99490.13
2022-12-04T02:28:56.386Z,99495.21
2022-12-04T02:31:33.837Z,99495.92
2022-12-04T02:34:07.264Z,99493.30
2022-12-04T02:36:45.238Z,99493.12
2022-12-04T02:39:41.687Z,99493.70
2022-12-04T02:42:22.808Z,99492.20
2022-12-04T02:44:55.946Z,99490.70
2022-12-04T02:47:25.517Z,99490.41
2022-12-04T02:50:01.835Z,99492.73
2022-12-04T02:52:35.112Z,99490.69
2022-12-04T02:55:08.811Z,99494.35
2022-12-04T02:57:43.205Z,99493.59
2022-12-04T03:00:11.843Z,99488.49
2022-12-04T03:02:56.931Z,99485.50
2022-12-04T03:05:48.717Z,99482.09
2022-12-04T03:08:23.024Z,99483.83
2022-12-04T03:10:55.916Z,99489.40
2022-12-04T03:13:49.715Z,99493.80
2022-12-04T03:16:34.975Z,99494.77
2022-12-04T03:19:10.053Z,99492.82
2022-12-04T03:21:47.920Z,99491.48
2022-12-04T03:24:34.810Z,99485.65
2022-12-04T03:27:19.680Z,99486.91
2022-12-04T03:29:59.181Z,99481.33
2022-12-04T03:32:48.975Z,99486.89
2022-12-04T03:35:26.660Z,99488.96
2022-12-04T03:38:04.981Z,99488.88
2022-12-04T03:40:38.386Z,99491.17
2022-12-04T03:43:09.409Z,99492.95
2022-12-04T03:46:00.123Z,99494.56
2022-12-04T03:48:52.441Z,99495.91
2022-12-04T03:51:29.768Z,99491.52
2022-12-04T03:54:28.908Z,99488.59
2022-12-04T03:57:03.425Z,99486.16
2022-12-04T03:59:40.718Z,99487.40
2022-12-04T04:02:12.467Z,99486.54
2022-12-04T04:04:44.017Z,99490.02
2022-12-04T04:07:18.228Z,99498.89
2022-12-04T04:09:50.660Z,99497.77
2022-12-04T04:12:23.378Z,99496.48
2022-12-04T04:15:13.817Z,99497.98
2022-12-04T04:18:03.136Z,99493.77
2022-12-04T04:20:57.188Z,99490.06
2022-12-04T04:23:48.778Z,99484.08
2022-12-04T04:26:18.368Z,99484.74
2022-12-04T04:28:46.517Z,99486.33
2022-12-04T04:32:06.745Z,99488.44
2022-12-04T04:34:49.735Z,99489.66
2022-12-04T04:38:02.109Z,99487.01
2022-12-04T04:40:50.533Z,99483.80
2022-12-04T04:43:25.643Z,99485.73
2022-12-04T04:46:08.779Z,99482.08
2022-12-04T04:48:44.953Z,99474.61
2022-12-04T04:51:13.722Z,99476.55
2022-12-04T04:54:00.735Z,99474.73
2022-12-04T04:56:28.618Z,99474.06
2022-12-04T04:58:56.526Z,99477.18
2022-12-04T05:01:28.236Z,99475.48
2022-12-04T05:03:56.182Z,99472.36
2022-12-04T05:06:24.001Z,99475.01
2022-12-04T05:08:51.843Z,99476.27
2022-12-04T05:11:19.673Z,99477.79
2022-12-04T05:13:47.502Z,99477.77
2022-12-04T05:16:16.296Z,99478.64
2022-12-04T05:19:07.463Z,99481.09
2022-12-04T05:21:35.711Z,99473.17
2022-12-04T05:24:03.703Z,99468.02
2022-12-04T05:26:31.521Z,99463.63
2022-12-04T05:28:59.343Z,99463.59
2022-12-04T05:31:27.329Z,99467.90
2022-12-04T05:33:56.610Z,99468.27
2022-12-04T05:36:24.493Z,99464.70
2022-12-04T05:38:52.736Z,99464.34
2022-12-04T05:41:20.561Z,99468.13
2022-12-04T05:43:48.410Z,99471.36
2022-12-04T05:46:16.831Z,99474.23
2022-12-04T05:48:44.729Z,99478.08
2022-12-04T05:51:12.581Z,99479.13
2022-12-04T05:53:41.004Z,99484.54
2022-12-04T05:56:09.250Z,99491.50
2022-12-04T05:58:38.367Z,99488.60
2022-12-04T06:01:15.690Z,99485.07
2022-12-04T06:03:43.589Z,99487.23
2022-12-04T06:06:23.639Z,99485.55
2022-12-04T06:08:54.227Z,99488.66
2022-12-04T06:11:26.358Z,99490.91
2022-12-04T06:13:54.976Z,99488.48
2022-12-04T06:16:25.926Z,99487.65
2022-12-04T06:18:56.738Z,99490.81
2022-12-04T06:21:26.423Z,99491.02
2022-12-04T06:23:54.365Z,99491.18
2022-12-04T06:26:23.176Z,99496.91
2022-12-04T06:28:54.619Z,99490.17
2022-12-04T06:31:23.358Z,99485.55
2022-12-04T06:33:52.818Z,99484.41
2022-12-04T06:36:22.506Z,99487.56
2022-12-04T06:38:51.816Z,99486.34
2022-12-04T06:41:22.393Z,99486.34
2022-12-04T06:43:51.910Z,99491.15
2022-12-04T06:46:22.161Z,99486.96
2022-12-04T06:48:51.144Z,99482.41
2022-12-04T06:51:33.985Z,99484.27
2022-12-04T06:54:02.558Z,99484.05
2022-12-04T06:56:32.568Z,99478.45
2022-12-04T07:13:40.990Z,99483.63
2022-12-04T07:16:12.491Z,99481.13
2022-12-04T07:18:40.752Z,99480.66
2022-12-04T07:21:11.593Z,99484.39
2022-12-04T07:23:39.502Z,99483.98
2022-12-04T07:26:10.073Z,99485.25
2022-12-04T07:28:38.280Z,99480.45
2022-12-04T07:31:07.554Z,99484.30
2022-12-04T07:33:35.453Z,99489.27
2022-12-04T07:36:05.203Z,99487.35
2022-12-04T07:38:34.924Z,99483.64
2022-12-04T07:41:05.121Z,99491.42
2022-12-04T07:43:34.275Z,99496.31
2022-12-04T07:46:22.918Z,99493.66
2022-12-04T07:48:50.971Z,99488.66
2022-12-04T07:51:21.534Z,99491.02
2022-12-04T07:53:51.477Z,99484.97
2022-12-04T07:56:20.010Z,99486.10
2022-12-04T07:58:48.047Z,99489.29
2022-12-04T08:01:22.053Z,99484.26
2022-12-04T08:03:52.421Z,99487.16
2022-12-04T08:06:22.993Z,99485.55
2022-12-04T08:08:52.103Z,99483.77
2022-12-04T08:11:23.043Z,99482.58
2022-12-04T08:13:59.466Z,99483.84
2022-12-04T08:16:29.464Z,99493.13
2022-12-04T08:18:58.208Z,99502.23
2022-12-04T08:21:29.468Z,99507.82
2022-12-04T08:23:58.444Z,99509.33
2022-12-04T08:26:28.865Z,99510.50
2022-12-04T08:28:57.900Z,99511.10
2022-12-04T08:31:28.788Z,99512.51
2022-12-04T08:33:59.185Z,99514.14
2022-12-04T08:36:27.956Z,99512.98
2022-12-04T08:38:56.454Z,99512.31
2022-12-04T08:41:26.811Z,99516.55
2022-12-04T08:43:56.943Z,99517.05
2022-12-04T08:46:27.224Z,99514.53
2022-12-04T08:48:56.266Z,99514.09
2022-12-04T08:51:27.195Z,99511.46
2022-12-04T08:53:58.146Z,99507.42
2022-12-04T08:56:29.322Z,99506.85
2022-12-04T08:58:59.240Z,99508.46
2022-12-04T09:01:29.918Z,99505.17
2022-12-04T09:03:58.528Z,99505.30
2022-12-04T09:06:36.273Z,99510.89
2022-12-04T09:09:04.600Z,99515.10
2022-12-04T09:11:33.425Z,99519.69
2022-12-04T09:14:04.379Z,99519.29
2022-12-04T09:16:35.798Z,99513.16
2022-12-04T09:19:04.930Z,99509.32
2022-12-04T09:21:33.793Z,99501.82
2022-12-04T09:24:02.549Z,99501.63
2022-12-04T09:26:32.853Z,99495.84
2022-12-04T09:29:03.571Z,99494.73
2022-12-04T09:31:32.845Z,99487.77
2022-12-04T09:34:03.963Z,99490.83
2022-12-04T09:36:32.361Z,99486.86
2022-12-04T09:39:02.309Z,99479.51
2022-12-04T09:41:36.702Z,99481.50
2022-12-04T09:44:09.544Z,99485.62
2022-12-04T09:46:42.750Z,99479.68
2022-12-04T09:49:21.987Z,99478.18
2022-12-04T09:51:55.371Z,99470.35
2022-12-04T09:54:30.976Z,99472.61
2022-12-04T09:57:05.769Z,99469.85
2022-12-04T09:59:35.166Z,99471.98
2022-12-04T10:02:24.057Z,99473.36
2022-12-04T10:04:54.034Z,99473.53
2022-12-04T10:07:33.058Z,99475.25
2022-12-04T10:10:16.699Z,99471.21
2022-12-04T10:12:54.813Z,99465.73
2022-12-04T10:15:36.481Z,99462.65
2022-12-04T10:18:23.609Z,99456.98
2022-12-04T10:21:11.818Z,99458.48
2022-12-04T10:24:13.077Z,99450.34
2022-12-04T10:26:47.934Z,99445.17
2022-12-04T10:29:20.605Z,99443.46
2022-12-04T10:31:52.175Z,99444.94
2022-12-04T10:34:26.385Z,99446.02
2022-12-04T10:37:11.804Z,99437.85
2022-12-04T10:40:01.078Z,99436.21
2022-12-04T10:42:47.975Z,99428.58
2022-12-04T10:45:24.376Z,99424.61
2022-12-04T10:47:54.047Z,99422.11
2022-12-04T10:50:24.635Z,99423.05
2022-12-04T10:53:00.552Z,99426.88
2022-12-04T10:55:34.451Z,99424.79
2022-12-04T10:58:03.216Z,99426.70
2022-12-04T11:00:35.503Z,99425.05
2022-12-04T11:03:10.856Z,99421.80
2022-12-04T11:05:56.865Z,99418.94
2022-12-04T11:08:37.895Z,99414.55
2022-12-04T11:11:11.422Z,99418.09
2022-12-04T11:13:40.993Z,99418.98
2022-12-04T11:16:28.959Z,99418.92
2022-12-04T11:18:57.373Z,99421.25
2022-12-04T11:21:35.573Z,99414.52
2022-12-04T11:24:06.422Z,99408.45
2022-12-04T11:26:38.560Z,99409.28
2022-12-04T11:29:12.242Z,99401.82
2022-12-04T11:31:48.629Z,99395.86
2022-12-04T11:34:23.661Z,99392.73
2022-12-04T11:36:57.274Z,99385.15
2022-12-04T11:39:40.714Z,99391.59
2022-12-04T11:42:13.083Z,99394.84
2022-12-04T11:44:59.859Z,99394.05
2022-12-04T11:47:31.970Z,99396.23
2022-12-04T11:50:11.493Z,99392.64
2022-12-04T11:53:12.151Z,99393.56
2022-12-04T11:56:05.450Z,99394.63
2022-12-04T11:59:00.332Z,99392.27
2022-12-04T12:01:43.590Z,99391.80
2022-12-04T12:04:49.536Z,99390.80
2022-12-04T12:07:49.746Z,99395.02
2022-12-04T12:10:22.757Z,99394.68
2022-12-04T12:13:06.558Z,99396.02
2022-12-04T12:15:44.346Z,99397.17
2022-12-04T12:18:35.374Z,99396.10
2022-12-04T12:21:20.156Z,99392.98
2022-12-04T12:24:11.630Z,99388.06
2022-12-04T12:27:08.629Z,99386.44
2022-12-04T12:30:06.681Z,99382.48
2022-12-04T12:32:58.264Z,99379.75
2022-12-04T12:35:36.006Z,99380.73
2022-12-04T12:38:14.488Z,99384.09
2022-12-04T12:40:50.407Z,99380.86
2022-12-04T12:43:40.377Z,99379.79
2022-12-04T12:46:23.858Z,99372.25
2022-12-04T12:49:21.261Z,99365.20
2022-12-04T12:52:02.774Z,99357.41
2022-12-04T12:55:00.525Z,99357.09
2022-12-04T12:57:41.481Z,99354.12
2022-12-04T13:00:15.697Z,99354.08
2022-12-04T13:03:03.663Z,99353.65
2022-12-04T13:05:55.157Z,99359.08
2022-12-04T13:08:25.910Z,99359.83
2022-12-04T13:11:12.766Z,99358.58
2022-12-04T13:13:47.985Z,99362.98
2022-12-04T13:16:21.223Z,99367.42
2022-12-04T13:18:49.326Z,99368.98
2022-12-04T13:21:34.729Z,99370.65
2022-12-04T13:24:25.153Z,99369.38
2022-12-04T13:26:56.799Z,99361.02
2022-12-04T13:29:59.507Z,99355.35
2022-12-04T13:32:56.521Z,99360.93
2022-12-04T13:35:49.640Z,99361.89
2022-12-04T13:38:29.641Z,99355.77
2022-12-04T13:41:04.365Z,99356.23
2022-12-04T13:43:36.970Z,99356.36
2022-12-04T13:46:23.805Z,99356.46
2022-12-04T13:48:51.957Z,99353.33
2022-12-04T13:51:38.210Z,99346.35
2022-12-04T13:54:12.437Z,99349.38
2022-12-04T13:56:49.877Z,99352.92
2022-12-04T13:59:23.706Z,99356.80
2022-12-04T14:02:07.715Z,99353.42
2022-12-04T14:04:45.662Z,99356.96
2022-12-04T14:07:25.961Z,99362.77
2022-12-04T14:09:56.898Z,99360.40
2022-12-04T14:12:29.519Z,99355.06
2022-12-04T14:15:00.538Z,99361.27
2022-12-04T14:17:33.645Z,99363.56
2022-12-04T14:20:24.674Z,99364.72
2022-12-04T14:22:52.997Z,99370.22
2022-12-04T14:25:34.741Z,99370.83
2022-12-04T14:28:14.386Z,99371.52
2022-12-04T14:30:44.140Z,99375.45
2022-12-04T14:33:20.631Z,99378.34
2022-12-04T14:36:11.220Z,99378.50
2022-12-04T14:38:39.978Z,99380.25
2022-12-04T14:41:07.943Z,99375.77
2022-12-04T14:43:40.677Z,99379.67
2022-12-04T14:46:27.840Z,99383.41
2022-12-04T14:49:01.992Z,99383.41
2022-12-04T14:51:35.884Z,99382.33
2022-12-04T14:54:21.163Z,99379.31
2022-12-04T14:57:30.165Z,99376.64
2022-12-04T15:00:00.603Z,99376.29
2022-12-04T15:02:41.656Z,99376.59
2022-12-04T15:05:12.743Z,99375.27
2022-12-04T15:07:49.176Z,99370.64
2022-12-04T15:10:46.681Z,99369.00
2022-12-04T15:13:32.783Z,99370.15
2022-12-04T15:16:19.103Z,99375.11
2022-12-04T15:18:58.072Z,99378.53
2022-12-04T15:21:40.980Z,99377.27
2022-12-04T15:24:10.982Z,99379.98
2022-12-04T15:26:39.750Z,99375.89
2022-12-04T15:29:09.302Z,99371.99
2022-12-04T15:31:48.304Z,99371.94
2022-12-04T15:34:21.443Z,99372.58
2022-12-04T15:37:03.112Z,99375.64
2022-12-04T15:39:34.030Z,99370.70
2022-12-04T15:42:29.563Z,99368.73
2022-12-04T15:45:03.587Z,99369.89
2022-12-04T15:47:49.390Z,99372.13
2022-12-04T15:50:17.182Z,99373.84
2022-12-04T15:53:06.383Z,99375.38
2022-12-04T15:55:56.323Z,99370.45
2022-12-04T15:58:33.260Z,99371.42
2022-12-04T16:01:07.309Z,99379.70
2022-12-04T16:03:44.196Z,99387.98
2022-12-04T16:06:27.067Z,99389.98
2022-12-04T16:09:00.330Z,99388.86
2022-12-04T16:11:30.315Z,99387.21
2022-12-04T16:14:06.348Z,99391.08
2022-12-04T16:16:38.437Z,99396.20
2022-12-04T16:19:11.846Z,99397.30
2022-12-04T16:21:39.758Z,99398.94
2022-12-04T16:24:10.539Z,99398.52
2022-12-04T16:26:38.439Z,99401.41
2022-12-04T16:29:06.354Z,99403.60
2022-12-04T16:31:34.747Z,99399.33
2022-12-04T16:34:02.616Z,99405.48
2022-12-04T16:36:30.553Z,99405.42
2022-12-04T16:38:58.696Z,99410.59
2022-12-04T16:41:26.607Z,99406.88
2022-12-04T16:43:56.779Z,99407.13
2022-12-04T16:46:27.162Z,99407.40
2022-12-04T16:48:55.698Z,99408.46
2022-12-04T16:51:26.412Z,99407.98
2022-12-04T16:53:54.885Z,99403.65
2022-12-04T16:56:22.853Z,99399.48
2022-12-04T16:58:50.788Z,99397.63
2022-12-04T17:01:25.203Z,99398.73
2022-12-04T17:03:53.282Z,99396.16
2022-12-04T17:06:21.604Z,99395.20
2022-12-04T17:08:49.507Z,99396.84
2022-12-04T17:11:18.157Z,99401.48
2022-12-04T17:13:46.479Z,99402.32
2022-12-04T17:16:15.365Z,99396.59
2022-12-04T17:18:44.024Z,99400.20
2022-12-04T17:21:13.593Z,99400.77
2022-12-04T17:23:42.053Z,99398.00
2022-12-04T17:26:12.639Z,99393.10
2022-12-04T17:28:41.535Z,99390.63
2022-12-04T17:31:21.621Z,99391.45
2022-12-04T17:33:49.681Z,99389.15
2022-12-04T17:36:22.561Z,99383.38
2022-12-04T17:38:58.210Z,99377.73
2022-12-04T17:41:26.147Z,99378.33
2022-12-04T17:43:54.014Z,99380.64
2022-12-04T17:46:24.571Z,99377.38
2022-12-04T17:48:55.439Z,99383.64
2022-12-04T17:51:25.005Z,99385.42
2022-12-04T17:53:52.910Z,99386.84
2022-12-04T17:56:23.200Z,99389.96
2022-12-04T17:58:52.167Z,99391.70
2022-12-04T18:01:23.402Z,99389.44
2022-12-04T18:03:57.037Z,99387.52
2022-12-04T18:06:31.429Z,99383.86
2022-12-04T18:08:59.519Z,99395.00
2022-12-04T18:11:32.336Z,99389.30
2022-12-04T18:14:07.124Z,99388.27
2022-12-04T18:16:42.087Z,99384.77
2022-12-04T18:19:11.305Z,99385.65
2022-12-04T18:21:39.991Z,99382.35
2022-12-04T18:24:08.516Z,99378.67
2022-12-04T18:26:42.048Z,99381.67
2022-12-04T18:29:13.777Z,99376.85
2022-12-04T18:31:42.014Z,99374.25
2022-12-04T18:34:10.551Z,99376.15
2022-12-04T18:36:40.095Z,99377.17
2022-12-04T18:39:11.968Z,99373.31
2022-12-04T18:41:39.957Z,99377.29
2022-12-04T18:44:07.987Z,99374.52
2022-12-04T18:46:36.231Z,99375.71
2022-12-04T18:49:04.502Z,99377.64
2022-12-04T18:51:35.478Z,99377.13
2022-12-04T18:54:06.536Z,99377.48
2022-12-04T18:56:35.473Z,99371.75
2022-12-04T18:59:08.483Z,99376.62
2022-12-04T19:01:36.585Z,99377.83
2022-12-04T19:04:06.525Z,99373.98
2022-12-04T19:06:39.511Z,99373.45
2022-12-04T19:09:11.812Z,99380.41
2022-12-04T19:11:41.253Z,99383.57
2022-12-04T19:14:20.758Z,99386.82
2022-12-04T19:16:51.654Z,99389.33
2022-12-04T19:19:22.184Z,99387.95
2022-12-04T19:21:50.011Z,99387.26
2022-12-04T19:24:19.240Z,99389.80
2022-12-04T19:26:48.483Z,99393.68
2022-12-04T19:29:16.634Z,99392.15
2022-12-04T19:31:44.645Z,99393.21
2022-12-04T19:34:12.520Z,99399.05
2022-12-04T19:36:41.295Z,99396.77
2022-12-04T19:39:10.002Z,99394.91
2022-12-04T19:41:38.652Z,99398.95
2022-12-04T19:44:26.410Z,99396.39
2022-12-04T19:46:54.580Z,99391.54
2022-12-04T19:49:22.490Z,99389.48
2022-12-04T19:51:50.694Z,99389.89
2022-12-04T19:54:19.020Z,99396.50
2022-12-04T19:56:51.358Z,99402.04
2022-12-04T19:59:20.628Z,99402.19
2022-12-04T20:01:48.591Z,99404.25
2022-12-04T20:04:16.591Z,99407.51
2022-12-04T20:06:46.139Z,99413.89
2022-12-04T20:09:17.913Z,99415.57
2022-12-04T20:11:46.259Z,99419.70
2022-12-04T20:14:14.128Z,99418.98
2022-12-04T20:16:42.646Z,99416.38
2022-12-04T20:19:14.697Z,99418.65
2022-12-04T20:21:43.577Z,99417.14
2022-12-04T20:24:16.446Z,99418.85
2022-12-04T20:26:46.078Z,99416.91
2022-12-04T20:29:15.765Z,99408.55
2022-12-04T20:31:45.515Z,99403.33
2022-12-04T20:34:16.465Z,99403.17
2022-12-04T20:36:46.407Z,99406.12
2022-12-04T20:39:16.386Z,99409.20
2022-12-04T20:41:44.941Z,99403.08
2022-12-04T20:44:15.087Z,99401.69
2022-12-04T20:46:43.644Z,99404.64
2022-12-04T20:49:20.589Z,99407.25
2022-12-04T20:51:51.910Z,99408.21
2022-12-04T20:54:22.047Z,99403.95
2022-12-04T20:56:52.896Z,99400.78
2022-12-04T20:59:23.140Z,99392.83
2022-12-04T21:01:52.055Z,99395.34
2022-12-04T21:04:20.570Z,99397.45
2022-12-04T21:06:48.974Z,99396.27
2022-12-04T21:09:19.975Z,99388.86
2022-12-04T21:11:50.704Z,99385.36
2022-12-04T21:14:46.608Z,99386.46
2022-12-04T21:17:18.852Z,99381.45
2022-12-04T21:19:50.460Z,99378.85
2022-12-04T21:22:19.732Z,99378.17
2022-12-04T21:24:47.637Z,99379.79
2022-12-04T21:27:20.681Z,99375.00
2022-12-04T21:29:49.535Z,99378.20
2022-12-04T21:32:18.855Z,99372.02
2022-12-04T21:34:46.770Z,99371.65
2022-12-04T21:37:14.724Z,99372.89
2022-12-04T21:39:43.049Z,99374.53
2022-12-04T21:42:29.174Z,99375.25
2022-12-04T21:44:58.309Z,99377.41
2022-12-04T21:47:27.539Z,99375.55
2022-12-04T21:49:55.748Z,99375.32
2022-12-04T21:52:24.513Z,99374.60
2022-12-04T21:54:54.184Z,99372.29
2022-12-04T21:57:22.870Z,99371.55
2022-12-04T21:59:52.314Z,99371.67
2022-12-04T22:02:20.473Z,99369.16
2022-12-04T22:04:48.494Z,99366.54
2022-12-04T22:07:16.740Z,99366.73
2022-12-04T22:09:46.197Z,99369.27
2022-12-04T22:12:41.380Z,99366.42
2022-12-04T22:15:01.807Z,99361.39
2022-12-04T22:17:30.235Z,99358.99
2022-12-04T22:19:58.246Z,99365.98
2022-12-04T22:22:26.278Z,99365.11
2022-12-04T22:24:54.072Z,99363.92
2022-12-04T22:27:21.911Z,99364.98
2022-12-04T22:29:51.080Z,99363.58
2022-12-04T22:32:20.170Z,99363.06
2022-12-04T22:34:49.257Z,99359.92
2022-12-04T22:37:17.336Z,99358.88
2022-12-04T22:39:45.247Z,99356.44
2022-12-04T22:42:13.081Z,99358.89
2022-12-04T22:44:41.037Z,99356.15
2022-12-04T22:47:09.081Z,99354.97
2022-12-04T22:49:36.908Z,99350.64
2022-12-04T22:52:05.057Z,99349.93
2022-12-04T22:54:32.886Z,99348.88
2022-12-04T22:57:00.686Z,99341.44
2022-12-04T22:59:28.543Z,99338.86
2022-12-04T23:01:56.504Z,99339.06
2022-12-04T23:04:24.261Z,99339.90
2022-12-04T23:06:52.415Z,99337.94
2022-12-04T23:09:20.747Z,99331.82
2022-12-04T23:11:55.395Z,99326.60
2022-12-04T23:14:23.596Z,99326.37
2022-12-04T23:16:51.526Z,99324.43
2022-12-04T23:19:20.082Z,99320.41
2022-12-04T23:21:56.398Z,99326.10
2022-12-04T23:24:25.948Z,99329.71
2022-12-04T23:26:53.951Z,99325.16
2022-12-04T23:29:52.893Z,99326.89
2022-12-04T23:32:09.832Z,99329.98
2022-12-04T23:34:38.872Z,99330.80
2022-12-04T23:37:06.783Z,99330.27
2022-12-04T23:39:34.604Z,99330.95
2022-12-04T23:42:02.413Z,99333.70
2022-12-04T23:44:30.364Z,99327.24
2022-12-04T23:46:58.228Z,99329.65
2022-12-04T23:49:26.314Z,99332.73
2022-12-04T23:51:54.225Z,99331.44
2022-12-04T23:54:22.073Z,99329.84
2022-12-04T23:56:49.923Z,99328.16
2022-12-04T23:59:17.967Z,99328.42
